sensor_id;sensor_type;location;lat;lon;timestamp;pressure;altitude;pressure_sealevel;temperature;humidity
71424;BME280;59240;51.370;-0.486;2023-04-26T00:00:29;101879.00;;;6.58;68.00
71424;BME280;59240;51.370;-0.486;2023-04-26T00:02:57;101891.13;;;6.63;67.48
71424;BME280;59240;51.370;-0.486;2023-04-26T00:05:25;101893.81;;;6.70;67.72
71424;BME280;59240;51.370;-0.486;2023-04-26T00:07:52;101866.00;;;6.52;67.75
71424;BME280;59240;51.370;-0.486;2023-04-26T00:10:19;101893.75;;;6.64;68.11
71424;BME280;59240;51.370;-0.486;2023-04-26T00:12:48;101878.19;;;6.61;68.39
71424;BME280;59240;51.370;-0.486;2023-04-26T00:15:15;101884.22;;;6.60;68.06
71424;BME280;59240;51.370;-0.486;2023-04-26T00:17:41;101881.59;;;6.58;68.15
71424;BME280;59240;51.370;-0.486;2023-04-26T00:20:10;101869.50;;;6.57;68.19
71424;BME280;59240;51.370;-0.486;2023-04-26T00:22:38;101865.16;;;6.55;67.79
71424;BME280;59240;51.370;-0.486;2023-04-26T00:25:06;101860.84;;;6.52;68.03
71424;BME280;59240;51.370;-0.486;2023-04-26T00:27:32;101842.63;;;6.46;68.64
71424;BME280;59240;51.370;-0.486;2023-04-26T00:29:59;101862.56;;;6.55;68.85
71424;BME280;59240;51.370;-0.486;2023-04-26T00:32:25;101860.00;;;6.56;68.34
71424;BME280;59240;51.370;-0.486;2023-04-26T00:34:52;101864.31;;;6.54;68.44
71424;BME280;59240;51.370;-0.486;2023-04-26T00:37:19;101860.88;;;6.57;68.81
71424;BME280;59240;51.370;-0.486;2023-04-26T00:39:46;101856.56;;;6.57;68.29
71424;BME280;59240;51.370;-0.486;2023-04-26T00:42:13;101862.59;;;6.56;68.17
71424;BME280;59240;51.370;-0.486;2023-04-26T00:44:39;101840.84;;;6.42;68.77
71424;BME280;59240;51.370;-0.486;2023-04-26T00:47:06;101847.91;;;6.54;68.39
71424;BME280;59240;51.370;-0.486;2023-04-26T00:49:32;101856.53;;;6.54;68.71
71424;BME280;59240;51.370;-0.486;2023-04-26T00:52:01;101842.56;;;6.40;68.85
71424;BME280;59240;51.370;-0.486;2023-04-26T00:54:28;101860.84;;;6.52;69.01
71424;BME280;59240;51.370;-0.486;2023-04-26T00:56:54;101864.22;;;6.48;69.16
71424;BME280;59240;51.370;-0.486;2023-04-26T00:59:21;101852.94;;;6.43;69.18
71424;BME280;59240;51.370;-0.486;2023-04-26T01:01:48;101866.78;;;6.45;69.20
71424;BME280;59240;51.370;-0.486;2023-04-26T01:04:15;101839.00;;;6.32;68.97
71424;BME280;59240;51.370;-0.486;2023-04-26T01:06:42;101864.06;;;6.36;68.86
71424;BME280;59240;51.370;-0.486;2023-04-26T01:09:09;101859.75;;;6.35;68.73
71424;BME280;59240;51.370;-0.486;2023-04-26T01:11:37;101844.19;;;6.32;69.73
71424;BME280;59240;51.370;-0.486;2023-04-26T01:14:04;101849.38;;;6.32;69.07
71424;BME280;59240;51.370;-0.486;2023-04-26T01:16:31;101863.22;;;6.37;69.58
71424;BME280;59240;51.370;-0.486;2023-04-26T01:19:06;101851.13;;;6.36;71.33
71424;BME280;59240;51.370;-0.486;2023-04-26T01:21:33;101831.16;;;6.26;69.30
71424;BME280;59240;51.370;-0.486;2023-04-26T01:24:00;101835.56;;;6.33;70.10
71424;BME280;59240;51.370;-0.486;2023-04-26T01:26:26;101825.22;;;6.33;69.77
71424;BME280;59240;51.370;-0.486;2023-04-26T01:28:53;101823.47;;;6.32;70.11
71424;BME280;59240;51.370;-0.486;2023-04-26T01:31:20;101829.63;;;6.40;70.09
71424;BME280;59240;51.370;-0.486;2023-04-26T01:33:46;101812.38;;;6.41;70.45
71424;BME280;59240;51.370;-0.486;2023-04-26T01:36:13;101808.94;;;6.43;70.36
71424;BME280;59240;51.370;-0.486;2023-04-26T01:38:39;101788.16;;;6.37;70.39
71424;BME280;59240;51.370;-0.486;2023-04-26T01:41:07;101789.94;;;6.41;70.89
71424;BME280;59240;51.370;-0.486;2023-04-26T01:43:33;101809.88;;;6.51;70.50
71424;BME280;59240;51.370;-0.486;2023-04-26T01:46:00;101783.84;;;6.36;70.84
71424;BME280;59240;51.370;-0.486;2023-04-26T01:48:29;101812.50;;;6.53;70.23
71424;BME280;59240;51.370;-0.486;2023-04-26T01:50:56;101815.13;;;6.54;69.90
71424;BME280;59240;51.370;-0.486;2023-04-26T01:53:22;101795.13;;;6.44;70.88
71424;BME280;59240;51.370;-0.486;2023-04-26T01:55:49;101811.69;;;6.57;70.67
71424;BME280;59240;51.370;-0.486;2023-04-26T01:58:16;101804.84;;;6.64;70.26
71424;BME280;59240;51.370;-0.486;2023-04-26T02:00:42;101806.56;;;6.65;70.33
71424;BME280;59240;51.370;-0.486;2023-04-26T02:03:09;101786.72;;;6.62;71.09
71424;BME280;59240;51.370;-0.486;2023-04-26T02:05:36;101804.91;;;6.70;70.23
71424;BME280;59240;51.370;-0.486;2023-04-26T02:08:02;101794.53;;;6.67;70.69
71424;BME280;59240;51.370;-0.486;2023-04-26T02:10:29;101784.19;;;6.67;71.05
71424;BME280;59240;51.370;-0.486;2023-04-26T02:12:56;101780.63;;;6.58;70.53
71424;BME280;59240;51.370;-0.486;2023-04-26T02:15:22;101801.53;;;6.77;70.42
71424;BME280;59240;51.370;-0.486;2023-04-26T02:17:49;101810.19;;;6.79;70.06
71424;BME280;59240;51.370;-0.486;2023-04-26T02:20:15;101815.41;;;6.82;70.33
71424;BME280;59240;51.370;-0.486;2023-04-26T02:22:42;101812.81;;;6.85;70.75
71424;BME280;59240;51.370;-0.486;2023-04-26T02:25:08;101824.91;;;6.86;70.70
71424;BME280;59240;51.370;-0.486;2023-04-26T02:27:38;101818.91;;;6.87;70.49
71424;BME280;59240;51.370;-0.486;2023-04-26T02:30:05;101776.47;;;6.73;70.18
71424;BME280;59240;51.370;-0.486;2023-04-26T02:32:32;101815.47;;;6.91;70.73
71424;BME280;59240;51.370;-0.486;2023-04-26T02:34:59;101806.78;;;6.86;70.41
71424;BME280;59240;51.370;-0.486;2023-04-26T02:37:26;101789.56;;;6.87;70.21
71424;BME280;59240;51.370;-0.486;2023-04-26T02:39:52;101803.38;;;6.90;70.75
71424;BME280;59240;51.370;-0.486;2023-04-26T02:42:19;101807.75;;;6.96;70.38
71424;BME280;59240;51.370;-0.486;2023-04-26T02:44:48;101807.78;;;6.97;70.40
71424;BME280;59240;51.370;-0.486;2023-04-26T02:47:15;101815.59;;;7.00;70.73
71424;BME280;59240;51.370;-0.486;2023-04-26T02:49:42;101794.81;;;6.94;70.71
71424;BME280;59240;51.370;-0.486;2023-04-26T02:52:08;101812.13;;;7.01;71.02
71424;BME280;59240;51.370;-0.486;2023-04-26T02:54:35;101794.81;;;6.94;70.74
71424;BME280;59240;51.370;-0.486;2023-04-26T02:57:01;101806.97;;;7.04;71.30
71424;BME280;59240;51.370;-0.486;2023-04-26T02:59:28;101807.84;;;7.05;70.96
71424;BME280;59240;51.370;-0.486;2023-04-26T03:01:57;101819.94;;;7.04;70.27
71424;BME280;59240;51.370;-0.486;2023-04-26T03:04:24;101813.00;;;7.02;71.09
71424;BME280;59240;51.370;-0.486;2023-04-26T03:06:50;101809.56;;;7.01;71.10
71424;BME280;59240;51.370;-0.486;2023-04-26T03:09:17;101809.56;;;7.01;71.09
71424;BME280;59240;51.370;-0.486;2023-04-26T03:11:43;101810.44;;;7.03;71.13
71424;BME280;59240;51.370;-0.486;2023-04-26T03:14:12;101810.44;;;7.06;70.96
71424;BME280;59240;51.370;-0.486;2023-04-26T03:16:43;101807.84;;;7.05;71.60
71424;BME280;59240;51.370;-0.486;2023-04-26T03:19:09;101781.78;;;6.88;71.19
71424;BME280;59240;51.370;-0.486;2023-04-26T03:21:36;101806.16;;;7.07;71.58
71424;BME280;59240;51.370;-0.486;2023-04-26T03:24:03;101791.41;;;7.01;71.25
71424;BME280;59240;51.370;-0.486;2023-04-26T03:26:29;101786.19;;;7.00;70.82
71424;BME280;59240;51.370;-0.486;2023-04-26T03:28:56;101798.34;;;7.05;71.29
71424;BME280;59240;51.370;-0.486;2023-04-26T03:31:23;101800.06;;;7.03;71.14
71424;BME280;59240;51.370;-0.486;2023-04-26T03:33:50;101803.53;;;7.05;71.07
71424;BME280;59240;51.370;-0.486;2023-04-26T03:36:17;101791.38;;;7.00;70.59
71424;BME280;59240;51.370;-0.486;2023-04-26T03:38:43;101779.25;;;6.94;71.05
71424;BME280;59240;51.370;-0.486;2023-04-26T03:41:10;101776.66;;;6.94;71.21
71424;BME280;59240;51.370;-0.486;2023-04-26T03:43:37;101786.19;;;6.98;71.05
71424;BME280;59240;51.370;-0.486;2023-04-26T03:46:03;101749.78;;;6.80;70.76
71424;BME280;59240;51.370;-0.486;2023-04-26T03:48:30;101781.00;;;6.95;70.95
71424;BME280;59240;51.370;-0.486;2023-04-26T03:50:57;101784.47;;;6.97;71.28
71424;BME280;59240;51.370;-0.486;2023-04-26T03:53:23;101775.84;;;7.00;71.64
71424;BME280;59240;51.370;-0.486;2023-04-26T03:55:50;101774.94;;;6.95;71.48
71424;BME280;59240;51.370;-0.486;2023-04-26T03:58:17;101774.94;;;6.96;71.60
71424;BME280;59240;51.370;-0.486;2023-04-26T04:00:46;101779.28;;;6.97;71.26
71424;BME280;59240;51.370;-0.486;2023-04-26T04:03:13;101781.91;;;7.00;70.88
71424;BME280;59240;51.370;-0.486;2023-04-26T04:05:39;101777.59;;;7.02;71.12
71424;BME280;59240;51.370;-0.486;2023-04-26T04:08:06;101770.66;;;6.98;71.33
71424;BME280;59240;51.370;-0.486;2023-04-26T04:10:33;101765.47;;;6.98;71.28
71424;BME280;59240;51.370;-0.486;2023-04-26T04:13:00;101747.22;;;6.86;71.47
71424;BME280;59240;51.370;-0.486;2023-04-26T04:15:26;101752.50;;;6.94;71.22
71424;BME280;59240;51.370;-0.486;2023-04-26T04:17:53;101759.41;;;6.98;71.09
71424;BME280;59240;51.370;-0.486;2023-04-26T04:20:20;101754.25;;;6.98;71.31
71424;BME280;59240;51.370;-0.486;2023-04-26T04:22:46;101750.78;;;6.99;71.24
71424;BME280;59240;51.370;-0.486;2023-04-26T04:25:13;101753.41;;;7.00;71.38
71424;BME280;59240;51.370;-0.486;2023-04-26T04:27:41;101743.88;;;6.98;71.59
71424;BME280;59240;51.370;-0.486;2023-04-26T04:30:09;101751.69;;;7.02;71.70
71424;BME280;59240;51.370;-0.486;2023-04-26T04:32:35;101739.50;;;6.92;71.75
71424;BME280;59240;51.370;-0.486;2023-04-26T04:35:04;101751.69;;;7.02;72.20
71424;BME280;59240;51.370;-0.486;2023-04-26T04:37:30;101733.50;;;6.93;71.93
71424;BME280;59240;51.370;-0.486;2023-04-26T04:40:00;101749.94;;;7.00;72.22
71424;BME280;59240;51.370;-0.486;2023-04-26T04:42:27;101749.97;;;7.01;71.79
71424;BME280;59240;51.370;-0.486;2023-04-26T04:44:54;101737.81;;;6.94;72.02
71424;BME280;59240;51.370;-0.486;2023-04-26T04:47:21;101745.66;;;7.03;72.15
71424;BME280;59240;51.370;-0.486;2023-04-26T04:49:48;101740.47;;;7.02;71.73
71424;BME280;59240;51.370;-0.486;2023-04-26T04:52:14;101730.00;;;6.88;72.05
71424;BME280;59240;51.370;-0.486;2023-04-26T04:54:46;101747.38;;;7.01;71.90
71424;BME280;59240;51.370;-0.486;2023-04-26T04:57:13;101756.00;;;7.00;71.87
71424;BME280;59240;51.370;-0.486;2023-04-26T04:59:42;101744.75;;;6.98;71.58
71424;BME280;59240;51.370;-0.486;2023-04-26T05:02:08;101724.81;;;6.88;72.18
71424;BME280;59240;51.370;-0.486;2023-04-26T05:04:35;101744.78;;;7.01;72.14
71424;BME280;59240;51.370;-0.486;2023-04-26T05:07:02;101723.97;;;6.92;71.41
71424;BME280;59240;51.370;-0.486;2023-04-26T05:09:28;101736.97;;;6.95;71.86
71424;BME280;59240;51.370;-0.486;2023-04-26T05:11:57;101746.47;;;6.98;72.09
71424;BME280;59240;51.370;-0.486;2023-04-26T05:14:24;101741.28;;;6.99;71.68
71424;BME280;59240;51.370;-0.486;2023-04-26T05:16:50;101724.00;;;6.95;71.55
71424;BME280;59240;51.370;-0.486;2023-04-26T05:19:17;101720.53;;;6.93;72.03
71424;BME280;59240;51.370;-0.486;2023-04-26T05:21:43;101750.00;;;7.07;71.53
71424;BME280;59240;51.370;-0.486;2023-04-26T05:24:10;101735.28;;;7.03;71.86
71424;BME280;59240;51.370;-0.486;2023-04-26T05:26:36;101754.41;;;7.18;72.05
71424;BME280;59240;51.370;-0.486;2023-04-26T05:29:03;101748.34;;;7.16;71.15
71424;BME280;59240;51.370;-0.486;2023-04-26T05:31:30;101758.75;;;7.22;71.14
71424;BME280;59240;51.370;-0.486;2023-04-26T05:33:56;101740.56;;;7.16;71.01
71424;BME280;59240;51.370;-0.486;2023-04-26T05:36:23;101740.59;;;7.19;71.39
71424;BME280;59240;51.370;-0.486;2023-04-26T05:38:50;101775.28;;;7.36;71.00
71424;BME280;59240;51.370;-0.486;2023-04-26T05:41:16;101743.22;;;7.25;70.88
71424;BME280;59240;51.370;-0.486;2023-04-26T05:43:43;101764.06;;;7.40;71.00
71424;BME280;59240;51.370;-0.486;2023-04-26T05:46:09;101756.31;;;7.42;71.36
71424;BME280;59240;51.370;-0.486;2023-04-26T05:48:36;101758.09;;;7.49;70.55
71424;BME280;59240;51.370;-0.486;2023-04-26T05:51:02;101749.41;;;7.47;70.97
71424;BME280;59240;51.370;-0.486;2023-04-26T05:53:29;101750.31;;;7.53;70.36
71424;BME280;59240;51.370;-0.486;2023-04-26T05:55:55;101749.50;;;7.56;70.89
71424;BME280;59240;51.370;-0.486;2023-04-26T05:58:22;101765.13;;;7.73;70.42
71424;BME280;59240;51.370;-0.486;2023-04-26T06:00:49;101772.94;;;7.79;70.89
71424;BME280;59240;51.370;-0.486;2023-04-26T06:03:15;101767.75;;;7.82;70.02
71424;BME280;59240;51.370;-0.486;2023-04-26T06:05:42;101764.34;;;7.86;70.68
71424;BME280;59240;51.370;-0.486;2023-04-26T06:08:09;101770.41;;;7.91;70.12
71424;BME280;59240;51.370;-0.486;2023-04-26T06:10:35;101766.09;;;7.93;69.52
71424;BME280;59240;51.370;-0.486;2023-04-26T06:13:03;101761.81;;;7.97;70.32
71424;BME280;59240;51.370;-0.486;2023-04-26T06:15:29;101745.31;;;7.87;69.34
71424;BME280;59240;51.370;-0.486;2023-04-26T06:17:59;101760.97;;;8.07;69.62
71424;BME280;59240;51.370;-0.486;2023-04-26T06:20:26;101777.44;;;8.13;69.95
71424;BME280;59240;51.370;-0.486;2023-04-26T06:22:53;101754.06;;;8.12;69.10
71424;BME280;59240;51.370;-0.486;2023-04-26T06:25:21;101761.88;;;8.10;69.49
71424;BME280;59240;51.370;-0.486;2023-04-26T06:27:48;101765.34;;;8.18;68.52
71424;BME280;59240;51.370;-0.486;2023-04-26T06:30:18;101774.88;;;8.29;68.86
71424;BME280;59240;51.370;-0.486;2023-04-26T06:32:44;101767.94;;;8.21;68.74
71424;BME280;59240;51.370;-0.486;2023-04-26T06:35:11;101762.78;;;8.28;69.01
71424;BME280;59240;51.370;-0.486;2023-04-26T06:37:37;101762.78;;;8.28;68.80
71424;BME280;59240;51.370;-0.486;2023-04-26T06:40:05;101769.75;;;8.44;68.87
71424;BME280;59240;51.370;-0.486;2023-04-26T06:42:32;101766.34;;;8.45;68.79
71424;BME280;59240;51.370;-0.486;2023-04-26T06:44:58;101767.19;;;8.47;68.73
71424;BME280;59240;51.370;-0.486;2023-04-26T06:47:25;101764.59;;;8.50;68.80
71424;BME280;59240;51.370;-0.486;2023-04-26T06:49:51;101769.81;;;8.56;67.95
71424;BME280;59240;51.370;-0.486;2023-04-26T06:52:20;101763.75;;;8.54;67.70
71424;BME280;59240;51.370;-0.486;2023-04-26T06:54:47;101740.34;;;8.42;68.20
71424;BME280;59240;51.370;-0.486;2023-04-26T06:57:22;101756.81;;;8.52;67.10
71424;BME280;59240;51.370;-0.486;2023-04-26T06:59:49;101749.91;;;8.54;67.62
71424;BME280;59240;51.370;-0.486;2023-04-26T07:02:16;101755.94;;;8.57;67.81
71424;BME280;59240;51.370;-0.486;2023-04-26T07:04:43;101746.44;;;8.56;66.92
71424;BME280;59240;51.370;-0.486;2023-04-26T07:07:10;101769.84;;;8.68;66.74
71424;BME280;59240;51.370;-0.486;2023-04-26T07:09:39;101746.44;;;8.64;67.49
71424;BME280;59240;51.370;-0.486;2023-04-26T07:12:06;101743.84;;;8.68;66.60
71424;BME280;59240;51.370;-0.486;2023-04-26T07:14:33;101764.63;;;8.71;66.38
71424;BME280;59240;51.370;-0.486;2023-04-26T07:17:03;101755.97;;;8.66;66.38
71424;BME280;59240;51.370;-0.486;2023-04-26T07:19:30;101761.19;;;8.75;67.02
71424;BME280;59240;51.370;-0.486;2023-04-26T07:21:56;101743.88;;;8.74;66.09
71424;BME280;59240;51.370;-0.486;2023-04-26T07:24:23;101738.66;;;8.74;66.84
71424;BME280;59240;51.370;-0.486;2023-04-26T07:26:50;101743.00;;;8.80;65.78
71424;BME280;59240;51.370;-0.486;2023-04-26T07:29:16;101753.41;;;8.89;65.39
71424;BME280;59240;51.370;-0.486;2023-04-26T07:31:47;101759.47;;;8.96;66.14
71424;BME280;59240;51.370;-0.486;2023-04-26T07:34:14;101749.94;;;8.98;65.09
71424;BME280;59240;51.370;-0.486;2023-04-26T07:36:40;101754.28;;;9.08;65.06
71424;BME280;59240;51.370;-0.486;2023-04-26T07:39:07;101761.19;;;9.15;64.62
71424;BME280;59240;51.370;-0.486;2023-04-26T07:41:36;101746.47;;;9.16;65.60
71424;BME280;59240;51.370;-0.486;2023-04-26T07:44:02;101742.13;;;9.22;65.32
71424;BME280;59240;51.370;-0.486;2023-04-26T07:46:29;101744.72;;;9.35;64.78
71424;BME280;59240;51.370;-0.486;2023-04-26T07:48:57;101740.34;;;9.40;64.99
71424;BME280;59240;51.370;-0.486;2023-04-26T07:51:26;101758.56;;;9.55;64.83
71424;BME280;59240;51.370;-0.486;2023-04-26T07:53:55;101755.94;;;9.61;64.09
71424;BME280;59240;51.370;-0.486;2023-04-26T07:56:22;101758.53;;;9.59;63.23
71424;BME280;59240;51.370;-0.486;2023-04-26T07:58:49;101768.06;;;9.65;62.83
71424;BME280;59240;51.370;-0.486;2023-04-26T08:01:17;101737.72;;;9.53;63.25
71424;BME280;59240;51.370;-0.486;2023-04-26T08:03:43;101762.88;;;9.68;62.73
71424;BME280;59240;51.370;-0.486;2023-04-26T08:06:10;101763.72;;;9.67;61.96
71424;BME280;59240;51.370;-0.486;2023-04-26T08:08:37;101760.25;;;9.65;62.87
71424;BME280;59240;51.370;-0.486;2023-04-26T08:11:10;101764.59;;;9.66;62.29
71424;BME280;59240;51.370;-0.486;2023-04-26T08:13:36;101769.78;;;9.69;62.15
71424;BME280;59240;51.370;-0.486;2023-04-26T08:16:04;101781.06;;;9.67;61.72
71424;BME280;59240;51.370;-0.486;2023-04-26T08:18:31;101768.09;;;9.62;60.04
71424;BME280;59240;51.370;-0.486;2023-04-26T08:20:57;101778.47;;;9.68;60.71
71424;BME280;59240;51.370;-0.486;2023-04-26T08:23:24;101768.06;;;9.60;60.17
71424;BME280;59240;51.370;-0.486;2023-04-26T08:25:52;101784.53;;;9.67;60.00
71424;BME280;59240;51.370;-0.486;2023-04-26T08:28:19;101781.06;;;9.67;60.44
71424;BME280;59240;51.370;-0.486;2023-04-26T08:30:46;101781.91;;;9.67;59.77
71424;BME280;59240;51.370;-0.486;2023-04-26T08:33:16;101778.47;;;9.68;59.66
71424;BME280;59240;51.370;-0.486;2023-04-26T08:35:43;101769.78;;;9.69;59.43
71424;BME280;59240;51.370;-0.486;2023-04-26T08:38:10;101775.84;;;9.71;60.16
71424;BME280;59240;51.370;-0.486;2023-04-26T08:40:36;101764.56;;;9.77;59.81
71424;BME280;59240;51.370;-0.486;2023-04-26T08:43:03;101771.50;;;9.82;58.75
71424;BME280;59240;51.370;-0.486;2023-04-26T08:45:30;101755.84;;;9.85;59.09
71424;BME280;59240;51.370;-0.486;2023-04-26T08:48:02;101766.22;;;10.04;56.06
71424;BME280;59240;51.370;-0.486;2023-04-26T08:50:32;101728.88;;;10.02;58.37
71424;BME280;59240;51.370;-0.486;2023-04-26T08:52:59;101759.19;;;10.30;58.42
71424;BME280;59240;51.370;-0.486;2023-04-26T08:55:26;101760.81;;;10.47;58.71
71424;BME280;59240;51.370;-0.486;2023-04-26T08:57:53;101747.78;;;10.47;57.88
71424;BME280;59240;51.370;-0.486;2023-04-26T09:00:21;101739.91;;;10.59;57.80
71424;BME280;59240;51.370;-0.486;2023-04-26T09:02:49;101753.69;;;10.78;57.40
71424;BME280;59240;51.370;-0.486;2023-04-26T09:05:20;101762.22;;;10.96;56.01
71424;BME280;59240;51.370;-0.486;2023-04-26T09:08:34;101744.84;;;10.99;56.97
71424;BME280;59240;51.370;-0.486;2023-04-26T09:10:42;101727.38;;;11.07;57.15
71424;BME280;59240;51.370;-0.486;2023-04-26T09:13:08;101754.16;;;11.22;55.61
71424;BME280;59240;51.370;-0.486;2023-04-26T09:15:36;101764.50;;;11.32;55.79
71424;BME280;59240;51.370;-0.486;2023-04-26T09:18:20;101761.03;;;11.31;52.29
71424;BME280;59240;51.370;-0.486;2023-04-26T09:21:13;101761.84;;;11.39;52.79
71424;BME280;59240;51.370;-0.486;2023-04-26T09:23:59;101766.16;;;11.42;52.94
71424;BME280;59240;51.370;-0.486;2023-04-26T09:26:29;101760.03;;;11.44;56.16
71424;BME280;59240;51.370;-0.486;2023-04-26T09:29:13;101765.19;;;11.50;54.06
71424;BME280;59240;51.370;-0.486;2023-04-26T09:31:45;101764.28;;;11.56;55.09
71424;BME280;59240;51.370;-0.486;2023-04-26T09:34:15;101759.09;;;11.55;55.38
71424;BME280;59240;51.370;-0.486;2023-04-26T09:36:49;101767.72;;;11.61;53.07
71424;BME280;59240;51.370;-0.486;2023-04-26T09:39:40;101765.91;;;11.65;52.02
71424;BME280;59240;51.370;-0.486;2023-04-26T09:42:08;101761.47;;;11.73;54.88
71424;BME280;59240;51.370;-0.486;2023-04-26T09:44:34;101756.25;;;11.76;54.53
71424;BME280;59240;51.370;-0.486;2023-04-26T09:49:45;101746.50;;;11.92;53.56
71424;BME280;59240;51.370;-0.486;2023-04-26T09:52:14;101761.09;;;12.10;53.99
71424;BME280;59240;51.370;-0.486;2023-04-26T09:54:46;101760.06;;;12.23;52.50
71424;BME280;59240;51.370;-0.486;2023-04-26T09:57:15;101745.28;;;12.22;53.49
71424;BME280;59240;51.370;-0.486;2023-04-26T09:59:44;101752.03;;;12.35;53.22
71424;BME280;59240;51.370;-0.486;2023-04-26T10:04:43;101755.44;;;12.43;52.52
71424;BME280;59240;51.370;-0.486;2023-04-26T10:07:12;101748.34;;;12.51;52.39
71424;BME280;59240;51.370;-0.486;2023-04-26T10:09:42;101758.66;;;12.60;52.01
71424;BME280;59240;51.370;-0.486;2023-04-26T10:12:13;101737.78;;;12.57;50.13
71424;BME280;59240;51.370;-0.486;2023-04-26T10:14:41;101746.31;;;12.70;51.38
71424;BME280;59240;51.370;-0.486;2023-04-26T10:17:07;101750.63;;;12.73;51.72
71424;BME280;59240;51.370;-0.486;2023-04-26T10:19:35;101730.72;;;12.64;51.63
71424;BME280;59240;51.370;-0.486;2023-04-26T10:22:30;101751.41;;;12.79;48.97
71424;BME280;59240;51.370;-0.486;2023-04-26T10:24:59;101734.84;;;12.79;51.82
71424;BME280;59240;51.370;-0.486;2023-04-26T10:27:52;101753.81;;;12.92;50.70
71424;BME280;59240;51.370;-0.486;2023-04-26T10:30:19;101735.47;;;12.93;50.99
71424;BME280;59240;51.370;-0.486;2023-04-26T10:35:25;101749.13;;;13.10;50.03
71424;BME280;59240;51.370;-0.486;2023-04-26T10:43:28;101735.94;;;13.18;49.17
71424;BME280;59240;51.370;-0.486;2023-04-26T10:45:55;101728.97;;;13.19;50.13
71424;BME280;59240;51.370;-0.486;2023-04-26T10:48:30;101734.06;;;13.26;49.24
71424;BME280;59240;51.370;-0.486;2023-04-26T10:53:28;101740.84;;;13.36;50.35
71424;BME280;59240;51.370;-0.486;2023-04-26T10:55:55;101725.19;;;13.35;49.75
71424;BME280;59240;51.370;-0.486;2023-04-26T10:58:32;101727.69;;;13.41;49.10
71424;BME280;59240;51.370;-0.486;2023-04-26T11:01:14;101718.03;;;13.45;48.00
71424;BME280;59240;51.370;-0.486;2023-04-26T11:06:24;101718.66;;;13.57;49.53
71424;BME280;59240;51.370;-0.486;2023-04-26T11:08:52;101716.75;;;13.65;49.09
71424;BME280;59240;51.370;-0.486;2023-04-26T11:11:25;101721.81;;;13.75;48.72
71424;BME280;59240;51.370;-0.486;2023-04-26T11:13:52;101709.34;;;13.86;48.96
71424;BME280;59240;51.370;-0.486;2023-04-26T11:16:18;101709.13;;;13.96;49.05
71424;BME280;59240;51.370;-0.486;2023-04-26T11:18:46;101703.69;;;14.07;48.65
71424;BME280;59240;51.370;-0.486;2023-04-26T11:21:13;101706.78;;;14.24;48.83
71424;BME280;59240;51.370;-0.486;2023-04-26T11:23:52;101702.06;;;14.39;47.58
71424;BME280;59240;51.370;-0.486;2023-04-26T11:26:19;101703.59;;;14.50;48.09
71424;BME280;59240;51.370;-0.486;2023-04-26T11:28:47;101704.38;;;14.54;47.99
71424;BME280;59240;51.370;-0.486;2023-04-26T11:31:14;101705.13;;;14.59;48.46
71424;BME280;59240;51.370;-0.486;2023-04-26T11:33:40;101696.34;;;14.62;47.27
71424;BME280;59240;51.370;-0.486;2023-04-26T11:36:07;101704.22;;;14.60;47.45
71424;BME280;59240;51.370;-0.486;2023-04-26T11:38:33;101708.47;;;14.66;46.28
71424;BME280;59240;51.370;-0.486;2023-04-26T11:41:03;101700.94;;;14.52;46.47
71424;BME280;59240;51.370;-0.486;2023-04-26T11:43:37;101702.81;;;14.45;44.89
71424;BME280;59240;51.370;-0.486;2023-04-26T11:46:06;101708.25;;;14.36;44.41
71424;BME280;59240;51.370;-0.486;2023-04-26T11:48:35;101705.91;;;14.24;46.34
71424;BME280;59240;51.370;-0.486;2023-04-26T11:51:03;101698.22;;;14.16;46.47
71424;BME280;59240;51.370;-0.486;2023-04-26T11:53:40;101696.50;;;14.15;45.73
71424;BME280;59240;51.370;-0.486;2023-04-26T11:56:18;101710.56;;;14.11;45.56
71424;BME280;59240;51.370;-0.486;2023-04-26T11:58:49;101713.19;;;14.11;46.16
71424;BME280;59240;51.370;-0.486;2023-04-26T12:01:34;101712.41;;;14.06;45.54
71424;BME280;59240;51.370;-0.486;2023-04-26T12:04:01;101709.34;;;13.87;46.45
71424;BME280;59240;51.370;-0.486;2023-04-26T12:06:42;101715.59;;;13.80;45.09
71424;BME280;59240;51.370;-0.486;2023-04-26T12:09:09;101722.72;;;13.72;45.44
71424;BME280;59240;51.370;-0.486;2023-04-26T12:11:37;101725.56;;;13.61;45.18
71424;BME280;59240;51.370;-0.486;2023-04-26T12:14:04;101725.59;;;13.58;45.75
71424;BME280;59240;51.370;-0.486;2023-04-26T12:16:31;101692.88;;;13.36;46.13
71424;BME280;59240;51.370;-0.486;2023-04-26T12:18:58;101709.25;;;13.47;46.00
71424;BME280;59240;51.370;-0.486;2023-04-26T12:21:24;101708.56;;;13.39;45.17
71424;BME280;59240;51.370;-0.486;2023-04-26T12:23:56;101709.53;;;13.33;45.29
71424;BME280;59240;51.370;-0.486;2023-04-26T12:26:47;101713.91;;;13.33;44.50
71424;BME280;59240;51.370;-0.486;2023-04-26T12:29:14;101689.72;;;13.19;45.47
71424;BME280;59240;51.370;-0.486;2023-04-26T12:31:41;101709.59;;;13.29;45.70
71424;BME280;59240;51.370;-0.486;2023-04-26T12:34:10;101673.25;;;13.10;45.75
71424;BME280;59240;51.370;-0.486;2023-04-26T12:36:39;101691.44;;;13.20;45.07
71424;BME280;59240;51.370;-0.486;2023-04-26T12:39:06;101687.13;;;13.15;45.81
71424;BME280;59240;51.370;-0.486;2023-04-26T12:41:33;101683.66;;;13.15;45.98
71424;BME280;59240;51.370;-0.486;2023-04-26T12:44:01;101704.47;;;13.23;45.59
71424;BME280;59240;51.370;-0.486;2023-04-26T12:46:28;101704.44;;;13.24;45.87
71424;BME280;59240;51.370;-0.486;2023-04-26T12:48:55;101682.72;;;13.21;45.94
71424;BME280;59240;51.370;-0.486;2023-04-26T12:51:21;101682.50;;;13.33;45.78
71424;BME280;59240;51.370;-0.486;2023-04-26T12:53:51;101703.97;;;13.50;45.27
71424;BME280;59240;51.370;-0.486;2023-04-26T12:56:18;101684.88;;;13.44;45.06
71424;BME280;59240;51.370;-0.486;2023-04-26T12:58:44;101677.03;;;13.45;45.38
71424;BME280;59240;51.370;-0.486;2023-04-26T13:01:12;101706.34;;;13.62;44.98
71424;BME280;59240;51.370;-0.486;2023-04-26T13:03:39;101689.78;;;13.62;45.16
71424;BME280;59240;51.370;-0.486;2023-04-26T13:06:06;101687.72;;;13.76;45.10
71424;BME280;59240;51.370;-0.486;2023-04-26T13:08:32;101701.53;;;13.84;44.56
71424;BME280;59240;51.370;-0.486;2023-04-26T13:10:59;101697.09;;;13.88;44.65